sensor_id;sensor_type;location;lat;lon;timestamp;P1;durP1;ratioP1;P2;durP2;ratioP2
28796;SDS011;24974;54.444;18.560;2023-02-21T00:02:28;20.50;;;5.53;;
28796;SDS011;24974;54.444;18.560;2023-02-21T00:05:17;22.83;;;6.30;;
28796;SDS011;24974;54.444;18.560;2023-02-21T00:08:07;26.50;;;9.32;;
28796;SDS011;24974;54.444;18.560;2023-02-21T00:10:56;23.10;;;5.70;;
28796;SDS011;24974;54.444;18.560;2023-02-21T00:13:45;21.80;;;4.75;;
28796;SDS011;24974;54.444;18.560;2023-02-21T00:16:35;28.35;;;6.82;;
28796;SDS011;24974;54.444;18.560;2023-02-21T00:19:24;25.45;;;6.05;;
28796;SDS011;24974;54.444;18.560;2023-02-21T06:11:43;41.42;;;15.32;;
28796;SDS011;24974;54.444;18.560;2023-02-21T06:14:16;51.92;;;8.88;;
28796;SDS011;24974;54.444;18.560;2023-02-21T06:16:48;37.50;;;10.98;;
28796;SDS011;24974;54.444;18.560;2023-02-21T06:19:19;37.72;;;7.90;;
28796;SDS011;24974;54.444;18.560;2023-02-21T06:21:50;33.50;;;11.68;;
28796;SDS011;24974;54.444;18.560;2023-02-21T06:24:21;34.95;;;10.30;;
28796;SDS011;24974;54.444;18.560;2023-02-21T06:26:52;31.33;;;7.40;;
28796;SDS011;24974;54.444;18.560;2023-02-21T06:29:22;37.03;;;7.45;;
28796;SDS011;24974;54.444;18.560;2023-02-21T06:31:57;40.60;;;7.78;;
28796;SDS011;24974;54.444;18.560;2023-02-21T06:34:28;32.85;;;8.90;;
28796;SDS011;24974;54.444;18.560;2023-02-21T06:36:59;43.88;;;8.25;;
28796;SDS011;24974;54.444;18.560;2023-02-21T06:39:30;38.00;;;8.13;;
28796;SDS011;24974;54.444;18.560;2023-02-21T06:42:02;39.13;;;12.65;;
28796;SDS011;24974;54.444;18.560;2023-02-21T06:44:32;31.58;;;10.65;;
28796;SDS011;24974;54.444;18.560;2023-02-21T06:47:03;36.90;;;8.32;;
28796;SDS011;24974;54.444;18.560;2023-02-21T06:49:34;38.42;;;10.35;;
28796;SDS011;24974;54.444;18.560;2023-02-21T06:52:05;42.70;;;9.32;;
28796;SDS011;24974;54.444;18.560;2023-02-21T06:54:37;41.97;;;13.93;;
28796;SDS011;24974;54.444;18.560;2023-02-21T06:57:08;29.67;;;8.32;;
28796;SDS011;24974;54.444;18.560;2023-02-21T06:59:39;42.33;;;8.32;;
28796;SDS011;24974;54.444;18.560;2023-02-21T07:02:19;32.92;;;7.90;;
28796;SDS011;24974;54.444;18.560;2023-02-21T07:04:51;48.17;;;9.60;;
28796;SDS011;24974;54.444;18.560;2023-02-21T07:07:22;40.20;;;8.52;;
28796;SDS011;24974;54.444;18.560;2023-02-21T07:09:52;33.40;;;7.80;;
28796;SDS011;24974;54.444;18.560;2023-02-21T07:12:23;35.10;;;7.43;;
28796;SDS011;24974;54.444;18.560;2023-02-21T07:14:54;56.20;;;11.32;;
28796;SDS011;24974;54.444;18.560;2023-02-21T07:17:25;43.72;;;8.20;;
28796;SDS011;24974;54.444;18.560;2023-02-21T07:19:56;33.30;;;7.95;;
28796;SDS011;24974;54.444;18.560;2023-02-21T07:22:27;40.05;;;8.35;;
28796;SDS011;24974;54.444;18.560;2023-02-21T07:24:58;43.45;;;7.97;;
28796;SDS011;24974;54.444;18.560;2023-02-21T07:27:29;37.58;;;8.02;;
28796;SDS011;24974;54.444;18.560;2023-02-21T07:30:00;34.90;;;8.10;;
28796;SDS011;24974;54.444;18.560;2023-02-21T07:32:31;45.17;;;8.32;;
28796;SDS011;24974;54.444;18.560;2023-02-21T07:35:02;41.85;;;13.27;;
28796;SDS011;24974;54.444;18.560;2023-02-21T07:37:34;47.05;;;12.20;;
28796;SDS011;24974;54.444;18.560;2023-02-21T07:40:05;47.30;;;10.75;;
28796;SDS011;24974;54.444;18.560;2023-02-21T07:42:36;37.40;;;8.35;;
28796;SDS011;24974;54.444;18.560;2023-02-21T07:45:13;39.85;;;13.07;;
28796;SDS011;24974;54.444;18.560;2023-02-21T07:47:45;36.15;;;8.52;;
28796;SDS011;24974;54.444;18.560;2023-02-21T07:50:16;44.83;;;12.68;;
28796;SDS011;24974;54.444;18.560;2023-02-21T07:52:47;31.55;;;9.18;;
28796;SDS011;24974;54.444;18.560;2023-02-21T07:55:18;51.38;;;11.75;;
28796;SDS011;24974;54.444;18.560;2023-02-21T07:57:51;41.53;;;9.00;;
28796;SDS011;24974;54.444;18.560;2023-02-21T08:00:22;47.38;;;9.30;;
28796;SDS011;24974;54.444;18.560;2023-02-21T08:02:54;35.17;;;9.70;;
28796;SDS011;24974;54.444;18.560;2023-02-21T08:05:25;44.22;;;9.98;;
28796;SDS011;24974;54.444;18.560;2023-02-21T08:07:57;47.80;;;9.50;;
28796;SDS011;24974;54.444;18.560;2023-02-21T08:10:28;35.17;;;9.07;;
28796;SDS011;24974;54.444;18.560;2023-02-21T08:12:59;46.38;;;10.30;;
28796;SDS011;24974;54.444;18.560;2023-02-21T08:15:30;41.08;;;9.20;;
28796;SDS011;24974;54.444;18.560;2023-02-21T08:18:01;43.35;;;8.93;;
28796;SDS011;24974;54.444;18.560;2023-02-21T08:20:32;47.13;;;8.65;;
28796;SDS011;24974;54.444;18.560;2023-02-21T08:23:03;42.45;;;9.07;;
28796;SDS011;24974;54.444;18.560;2023-02-21T08:25:33;43.25;;;9.05;;
28796;SDS011;24974;54.444;18.560;2023-02-21T08:28:04;42.22;;;9.60;;
28796;SDS011;24974;54.444;18.560;2023-02-21T08:30:35;48.33;;;8.57;;
28796;SDS011;24974;54.444;18.560;2023-02-21T08:33:06;46.78;;;11.82;;
28796;SDS011;24974;54.444;18.560;2023-02-21T08:35:37;43.42;;;8.63;;
28796;SDS011;24974;54.444;18.560;2023-02-21T08:38:08;41.85;;;8.63;;
28796;SDS011;24974;54.444;18.560;2023-02-21T08:40:40;41.67;;;9.75;;
28796;SDS011;24974;54.444;18.560;2023-02-21T08:43:11;41.47;;;8.45;;
28796;SDS011;24974;54.444;18.560;2023-02-21T08:45:42;45.67;;;8.77;;
28796;SDS011;24974;54.444;18.560;2023-02-21T08:48:12;46.50;;;9.43;;
28796;SDS011;24974;54.444;18.560;2023-02-21T08:50:43;42.10;;;8.52;;
28796;SDS011;24974;54.444;18.560;2023-02-21T08:53:15;42.45;;;9.13;;
28796;SDS011;24974;54.444;18.560;2023-02-21T08:55:46;39.15;;;9.57;;
28796;SDS011;24974;54.444;18.560;2023-02-21T08:58:17;41.53;;;8.70;;
28796;SDS011;24974;54.444;18.560;2023-02-21T09:00:48;42.75;;;9.48;;
28796;SDS011;24974;54.444;18.560;2023-02-21T09:03:19;40.13;;;9.60;;
28796;SDS011;24974;54.444;18.560;2023-02-21T09:05:50;78.32;;;33.90;;
28796;SDS011;24974;54.444;18.560;2023-02-21T09:08:21;41.28;;;9.63;;
28796;SDS011;24974;54.444;18.560;2023-02-21T09:10:56;37.45;;;8.13;;
28796;SDS011;24974;54.444;18.560;2023-02-21T09:13:30;43.92;;;9.35;;
28796;SDS011;24974;54.444;18.560;2023-02-21T09:16:04;46.60;;;9.20;;
28796;SDS011;24974;54.444;18.560;2023-02-21T09:18:36;45.92;;;10.18;;
28796;SDS011;24974;54.444;18.560;2023-02-21T09:21:07;43.53;;;9.02;;
28796;SDS011;24974;54.444;18.560;2023-02-21T09:23:38;41.15;;;8.85;;
28796;SDS011;24974;54.444;18.560;2023-02-21T09:26:09;49.72;;;10.63;;
28796;SDS011;24974;54.444;18.560;2023-02-21T09:28:40;38.08;;;9.63;;
28796;SDS011;24974;54.444;18.560;2023-02-21T09:31:13;51.95;;;11.32;;
28796;SDS011;24974;54.444;18.560;2023-02-21T09:33:44;47.55;;;9.88;;
28796;SDS011;24974;54.444;18.560;2023-02-21T09:36:16;38.50;;;9.30;;
28796;SDS011;24974;54.444;18.560;2023-02-21T09:38:53;36.30;;;8.32;;
28796;SDS011;24974;54.444;18.560;2023-02-21T09:41:24;48.40;;;9.70;;
28796;SDS011;24974;54.444;18.560;2023-02-21T09:43:55;42.95;;;9.52;;
28796;SDS011;24974;54.444;18.560;2023-02-21T09:46:39;48.08;;;10.02;;
28796;SDS011;24974;54.444;18.560;2023-02-21T09:49:19;44.00;;;9.68;;
28796;SDS011;24974;54.444;18.560;2023-02-21T09:51:56;47.03;;;8.80;;
28796;SDS011;24974;54.444;18.560;2023-02-21T09:57:08;42.88;;;10.15;;
28796;SDS011;24974;54.444;18.560;2023-02-21T09:59:41;39.35;;;10.25;;
28796;SDS011;24974;54.444;18.560;2023-02-21T10:05:14;36.53;;;8.90;;
28796;SDS011;24974;54.444;18.560;2023-02-21T10:16:04;39.28;;;9.43;;
28796;SDS011;24974;54.444;18.560;2023-02-21T10:21:46;47.88;;;9.25;;
28796;SDS011;24974;54.444;18.560;2023-02-21T10:24:22;42.72;;;9.90;;
28796;SDS011;24974;54.444;18.560;2023-02-21T10:32:25;44.00;;;9.90;;
28796;SDS011;24974;54.444;18.560;2023-02-21T10:34:56;35.78;;;8.77;;
28796;SDS011;24974;54.444;18.560;2023-02-21T10:43:40;43.25;;;10.40;;
28796;SDS011;24974;54.444;18.560;2023-02-21T10:48:47;41.20;;;8.65;;
28796;SDS011;24974;54.444;18.560;2023-02-21T10:51:32;43.30;;;8.75;;
28796;SDS011;24974;54.444;18.560;2023-02-21T10:54:22;44.33;;;9.35;;
28796;SDS011;24974;54.444;18.560;2023-02-21T10:56:55;42.35;;;10.73;;
28796;SDS011;24974;54.444;18.560;2023-02-21T11:02:02;48.38;;;9.90;;
28796;SDS011;24974;54.444;18.560;2023-02-21T11:04:54;47.53;;;10.50;;
28796;SDS011;24974;54.444;18.560;2023-02-21T11:07:36;39.92;;;9.00;;
28796;SDS011;24974;54.444;18.560;2023-02-21T11:10:30;38.00;;;9.63;;
28796;SDS011;24974;54.444;18.560;2023-02-21T11:13:19;36.13;;;9.07;;
28796;SDS011;24974;54.444;18.560;2023-02-21T11:18:41;39.97;;;9.55;;
28796;SDS011;24974;54.444;18.560;2023-02-21T11:21:13;39.30;;;9.02;;
28796;SDS011;24974;54.444;18.560;2023-02-21T11:23:55;41.58;;;9.77;;
28796;SDS011;24974;54.444;18.560;2023-02-21T11:26:43;41.05;;;9.80;;
28796;SDS011;24974;54.444;18.560;2023-02-21T11:29:18;44.30;;;9.25;;
28796;SDS011;24974;54.444;18.560;2023-02-21T11:31:53;34.55;;;8.77;;
28796;SDS011;24974;54.444;18.560;2023-02-21T11:34:27;41.70;;;9.00;;
28796;SDS011;24974;54.444;18.560;2023-02-21T11:37:01;41.67;;;9.10;;
28796;SDS011;24974;54.444;18.560;2023-02-21T11:39:34;41.55;;;9.23;;
28796;SDS011;24974;54.444;18.560;2023-02-21T11:42:22;37.22;;;8.38;;
28796;SDS011;24974;54.444;18.560;2023-02-21T11:45:42;39.70;;;9.45;;
28796;SDS011;24974;54.444;18.560;2023-02-21T11:48:04;35.88;;;8.02;;
28796;SDS011;24974;54.444;18.560;2023-02-21T11:50:43;42.83;;;8.18;;
28796;SDS011;24974;54.444;18.560;2023-02-21T11:53:23;42.85;;;8.73;;
28796;SDS011;24974;54.444;18.560;2023-02-21T11:56:03;38.28;;;8.43;;
28796;SDS011;24974;54.444;18.560;2023-02-21T12:05:31;41.38;;;7.55;;
28796;SDS011;24974;54.444;18.560;2023-02-21T12:10:52;46.17;;;8.65;;
28796;SDS011;24974;54.444;18.560;2023-02-21T12:13:42;39.15;;;7.50;;
28796;SDS011;24974;54.444;18.560;2023-02-21T12:27:49;31.33;;;8.48;;
28796;SDS011;24974;54.444;18.560;2023-02-21T12:48:17;39.03;;;7.93;;
28796;SDS011;24974;54.444;18.560;2023-02-21T12:50:59;38.33;;;8.15;;
28796;SDS011;24974;54.444;18.560;2023-02-21T12:56:10;33.70;;;8.93;;
28796;SDS011;24974;54.444;18.560;2023-02-21T12:58:59;36.65;;;7.85;;
28796;SDS011;24974;54.444;18.560;2023-02-21T13:07:15;34.72;;;7.10;;
28796;SDS011;24974;54.444;18.560;2023-02-21T13:10:02;30.85;;;7.63;;
28796;SDS011;24974;54.444;18.560;2023-02-21T13:12:55;34.72;;;6.40;;
28796;SDS011;24974;54.444;18.560;2023-02-21T13:15:30;23.30;;;6.82;;
28796;SDS011;24974;54.444;18.560;2023-02-21T13:18:06;30.15;;;7.00;;
28796;SDS011;24974;54.444;18.560;2023-02-21T13:20:58;29.63;;;6.70;;
28796;SDS011;24974;54.444;18.560;2023-02-21T13:23:43;29.40;;;6.72;;
28796;SDS011;24974;54.444;18.560;2023-02-21T13:29:42;24.98;;;6.47;;
28796;SDS011;24974;54.444;18.560;2023-02-21T13:32:14;20.60;;;5.88;;
28796;SDS011;24974;54.444;18.560;2023-02-21T13:34:53;34.38;;;7.72;;
28796;SDS011;24974;54.444;18.560;2023-02-21T13:37:31;30.30;;;5.75;;
28796;SDS011;24974;54.444;18.560;2023-02-21T13:40:14;25.85;;;6.45;;
28796;SDS011;24974;54.444;18.560;2023-02-21T13:42:46;27.08;;;5.63;;
28796;SDS011;24974;54.444;18.560;2023-02-21T13:45:18;24.08;;;5.90;;
28796;SDS011;24974;54.444;18.560;2023-02-21T13:53:18;29.90;;;7.28;;
28796;SDS011;24974;54.444;18.560;2023-02-21T13:58:39;26.77;;;6.20;;
28796;SDS011;24974;54.444;18.560;2023-02-21T14:04:02;27.42;;;6.28;;
28796;SDS011;24974;54.444;18.560;2023-02-21T14:07:11;25.80;;;7.15;;
28796;SDS011;24974;54.444;18.560;2023-02-21T14:09:41;22.48;;;6.55;;
28796;SDS011;24974;54.444;18.560;2023-02-21T14:12:15;36.08;;;6.47;;
28796;SDS011;24974;54.444;18.560;2023-02-21T14:14:46;26.60;;;6.95;;
28796;SDS011;24974;54.444;18.560;2023-02-21T14:17:25;26.55;;;6.55;;
28796;SDS011;24974;54.444;18.560;2023-02-21T14:19:58;28.10;;;6.53;;
28796;SDS011;24974;54.444;18.560;2023-02-21T14:22:30;30.40;;;6.57;;
28796;SDS011;24974;54.444;18.560;2023-02-21T14:25:16;26.67;;;6.68;;
28796;SDS011;24974;54.444;18.560;2023-02-21T14:27:51;32.95;;;7.25;;
28796;SDS011;24974;54.444;18.560;2023-02-21T14:30:30;28.13;;;6.57;;
28796;SDS011;24974;54.444;18.560;2023-02-21T14:33:24;23.80;;;6.40;;
28796;SDS011;24974;54.444;18.560;2023-02-21T14:36:12;30.13;;;5.95;;
28796;SDS011;24974;54.444;18.560;2023-02-21T14:38:49;35.42;;;6.53;;
28796;SDS011;24974;54.444;18.560;2023-02-21T14:41:29;30.73;;;7.40;;
28796;SDS011;24974;54.444;18.560;2023-02-21T14:44:19;26.65;;;5.97;;
28796;SDS011;24974;54.444;18.560;2023-02-21T14:56:16;27.85;;;6.60;;
28796;SDS011;24974;54.444;18.560;2023-02-21T15:04:46;36.35;;;5.95;;
28796;SDS011;24974;54.444;18.560;2023-02-21T15:07:30;24.35;;;5.57;;
28796;SDS011;24974;54.444;18.560;2023-02-21T15:10:20;33.55;;;6.47;;
28796;SDS011;24974;54.444;18.560;2023-02-21T15:18:54;33.95;;;6.82;;
28796;SDS011;24974;54.444;18.560;2023-02-21T15:23:42;25.73;;;6.25;;
28796;SDS011;24974;54.444;18.560;2023-02-21T15:26:22;31.60;;;5.80;;
28796;SDS011;24974;54.444;18.560;2023-02-21T15:32:02;36.90;;;7.53;;
28796;SDS011;24974;54.444;18.560;2023-02-21T15:34:40;32.05;;;7.35;;
28796;SDS011;24974;54.444;18.560;2023-02-21T15:37:25;28.52;;;7.07;;
28796;SDS011;24974;54.444;18.560;2023-02-21T15:40:01;34.33;;;7.30;;
28796;SDS011;24974;54.444;18.560;2023-02-21T15:42:41;25.20;;;6.18;;
28796;SDS011;24974;54.444;18.560;2023-02-21T15:45:18;25.45;;;6.43;;
28796;SDS011;24974;54.444;18.560;2023-02-21T15:47:57;27.98;;;6.00;;
28796;SDS011;24974;54.444;18.560;2023-02-21T15:50:39;32.38;;;7.50;;
28796;SDS011;24974;54.444;18.560;2023-02-21T15:53:15;37.10;;;6.60;;
28796;SDS011;24974;54.444;18.560;2023-02-21T15:55:49;29.67;;;6.22;;
28796;SDS011;24974;54.444;18.560;2023-02-21T16:01:07;29.77;;;6.20;;
28796;SDS011;24974;54.444;18.560;2023-02-21T16:03:41;22.58;;;6.30;;
28796;SDS011;24974;54.444;18.560;2023-02-21T16:06:17;29.48;;;6.82;;
28796;SDS011;24974;54.444;18.560;2023-02-21T16:14:46;30.13;;;6.25;;
28796;SDS011;24974;54.444;18.560;2023-02-21T16:17:39;30.95;;;6.75;;
28796;SDS011;24974;54.444;18.560;2023-02-21T16:22:49;30.23;;;7.15;;
28796;SDS011;24974;54.444;18.560;2023-02-21T16:28:39;30.27;;;7.50;;
28796;SDS011;24974;54.444;18.560;2023-02-21T16:31:15;31.00;;;7.22;;
28796;SDS011;24974;54.444;18.560;2023-02-21T16:33:53;25.55;;;7.00;;
28796;SDS011;24974;54.444;18.560;2023-02-21T16:36:26;23.38;;;6.82;;
28796;SDS011;24974;54.444;18.560;2023-02-21T16:39:00;34.13;;;7.78;;
28796;SDS011;24974;54.444;18.560;2023-02-21T16:41:32;25.77;;;7.22;;
28796;SDS011;24974;54.444;18.560;2023-02-21T16:44:03;27.30;;;6.50;;
28796;SDS011;24974;54.444;18.560;2023-02-21T16:46:35;28.73;;;6.47;;
28796;SDS011;24974;54.444;18.560;2023-02-21T16:49:07;22.85;;;6.57;;
28796;SDS011;24974;54.444;18.560;2023-02-21T16:51:40;23.95;;;6.00;;
28796;SDS011;24974;54.444;18.560;2023-02-21T16:54:13;26.23;;;6.35;;
28796;SDS011;24974;54.444;18.560;2023-02-21T16:56:45;26.25;;;7.40;;
28796;SDS011;24974;54.444;18.560;2023-02-21T16:59:20;28.33;;;6.72;;
28796;SDS011;24974;54.444;18.560;2023-02-21T17:01:53;23.35;;;6.32;;
28796;SDS011;24974;54.444;18.560;2023-02-21T17:04:24;23.95;;;5.80;;
28796;SDS011;24974;54.444;18.560;2023-02-21T17:06:57;20.80;;;7.38;;
28796;SDS011;24974;54.444;18.560;2023-02-21T17:09:33;22.95;;;6.03;;
28796;SDS011;24974;54.444;18.560;2023-02-21T17:12:10;18.17;;;5.68;;
28796;SDS011;24974;54.444;18.560;2023-02-21T17:14:42;20.67;;;6.18;;
28796;SDS011;24974;54.444;18.560;2023-02-21T17:17:14;21.35;;;5.18;;
28796;SDS011;24974;54.444;18.560;2023-02-21T17:19:45;17.00;;;6.15;;
28796;SDS011;24974;54.444;18.560;2023-02-21T17:22:16;24.40;;;5.63;;
28796;SDS011;24974;54.444;18.560;2023-02-21T17:24:47;22.90;;;6.47;;
28796;SDS011;24974;54.444;18.560;2023-02-21T17:27:18;25.83;;;7.20;;
28796;SDS011;24974;54.444;18.560;2023-02-21T17:29:49;17.40;;;5.88;;
28796;SDS011;24974;54.444;18.560;2023-02-21T17:32:20;19.55;;;6.72;;
28796;SDS011;24974;54.444;18.560;2023-02-21T17:34:51;23.25;;;5.53;;
28796;SDS011;24974;54.444;18.560;2023-02-21T17:37:22;18.67;;;6.13;;
28796;SDS011;24974;54.444;18.560;2023-02-21T17:39:54;21.38;;;5.80;;
28796;SDS011;24974;54.444;18.560;2023-02-21T17:42:25;19.40;;;6.65;;
28796;SDS011;24974;54.444;18.560;2023-02-21T17:44:56;17.55;;;5.68;;
28796;SDS011;24974;54.444;18.560;2023-02-21T17:47:28;23.02;;;6.15;;
28796;SDS011;24974;54.444;18.560;2023-02-21T17:49:58;16.33;;;5.38;;
28796;SDS011;24974;54.444;18.560;2023-02-21T17:52:30;12.80;;;4.97;;
28796;SDS011;24974;54.444;18.560;2023-02-21T17:55:02;14.23;;;5.10;;
28796;SDS011;24974;54.444;18.560;2023-02-21T17:57:37;14.82;;;5.75;;
28796;SDS011;24974;54.444;18.560;2023-02-21T18:00:14;15.38;;;5.50;;
28796;SDS011;24974;54.444;18.560;2023-02-21T18:02:51;16.25;;;6.32;;
28796;SDS011;24974;54.444;18.560;2023-02-21T18:05:23;15.93;;;5.78;;
28796;SDS011;24974;54.444;18.560;2023-02-21T18:07:54;15.45;;;4.70;;
28796;SDS011;24974;54.444;18.560;2023-02-21T18:10:25;11.27;;;4.25;;
28796;SDS011;24974;54.444;18.560;2023-02-21T18:12:57;11.35;;;4.70;;
28796;SDS011;24974;54.444;18.560;2023-02-21T18:15:28;8.27;;;4.80;;
28796;SDS011;24974;54.444;18.560;2023-02-21T18:17:59;12.13;;;4.65;;
28796;SDS011;24974;54.444;18.560;2023-02-21T18:20:34;10.90;;;3.75;;
28796;SDS011;24974;54.444;18.560;2023-02-21T18:23:05;13.52;;;3.92;;
28796;SDS011;24974;54.444;18.560;2023-02-21T18:25:37;10.80;;;4.30;;
28796;SDS011;24974;54.444;18.560;2023-02-21T18:28:08;13.82;;;4.25;;
28796;SDS011;24974;54.444;18.560;2023-02-21T18:30:39;24.02;;;8.82;;
28796;SDS011;24974;54.444;18.560;2023-02-21T18:33:11;13.35;;;5.13;;
28796;SDS011;24974;54.444;18.560;2023-02-21T18:35:41;9.85;;;4.10;;
28796;SDS011;24974;54.444;18.560;2023-02-21T18:38:13;8.20;;;3.80;;
28796;SDS011;24974;54.444;18.560;2023-02-21T18:40:46;7.57;;;3.50;;
28796;SDS011;24974;54.444;18.560;2023-02-21T18:43:18;9.57;;;4.35;;
28796;SDS011;24974;54.444;18.560;2023-02-21T18:45:55;8.32;;;4.13;;
28796;SDS011;24974;54.444;18.560;2023-02-21T18:48:31;8.27;;;3.85;;
28796;SDS011;24974;54.444;18.560;2023-02-21T18:51:02;8.63;;;3.97;;
28796;SDS011;24974;54.444;18.560;2023-02-21T18:53:37;7.15;;;4.00;;
28796;SDS011;24974;54.444;18.560;2023-02-21T18:56:09;6.63;;;3.53;;
28796;SDS011;24974;54.444;18.560;2023-02-21T18:58:42;5.93;;;3.00;;
28796;SDS011;24974;54.444;18.560;2023-02-21T19:01:14;6.75;;;3.55;;
28796;SDS011;24974;54.444;18.560;2023-02-21T19:03:48;10.68;;;4.82;;
28796;SDS011;24974;54.444;18.560;2023-02-21T19:06:20;11.07;;;4.60;;
28796;SDS011;24974;54.444;18.560;2023-02-21T19:08:54;10.45;;;4.80;;
28796;SDS011;24974;54.444;18.560;2023-02-21T19:11:25;14.15;;;5.55;;
28796;SDS011;24974;54.444;18.560;2023-02-21T19:13:56;12.73;;;5.22;;
28796;SDS011;24974;54.444;18.560;2023-02-21T19:16:27;11.02;;;5.57;;
28796;SDS011;24974;54.444;18.560;2023-02-21T19:19:02;10.68;;;5.65;;
28796;SDS011;24974;54.444;18.560;2023-02-21T19:21:34;11.93;;;4.70;;
28796;SDS011;24974;54.444;18.560;2023-02-21T19:24:05;8.80;;;3.78;;
28796;SDS011;24974;54.444;18.560;2023-02-21T19:26:36;10.73;;;3.45;;
28796;SDS011;24974;54.444;18.560;2023-02-21T19:29:08;8.10;;;3.30;;
28796;SDS011;24974;54.444;18.560;2023-02-21T19:31:39;4.75;;;3.20;;
28796;SDS011;24974;54.444;18.560;2023-02-21T19:34:10;7.30;;;3.33;;
28796;SDS011;24974;54.444;18.560;2023-02-21T19:36:42;7.05;;;3.67;;
28796;SDS011;24974;54.444;18.560;2023-02-21T19:39:17;8.00;;;4.00;;
28796;SDS011;24974;54.444;18.560;2023-02-21T19:41:48;9.02;;;3.92;;
28796;SDS011;24974;54.444;18.560;2023-02-21T19:44:19;14.18;;;7.28;;
28796;SDS011;24974;54.444;18.560;2023-02-21T19:46:51;9.63;;;3.97;;
28796;SDS011;24974;54.444;18.560;2023-02-21T19:49:22;8.88;;;3.83;;
28796;SDS011;24974;54.444;18.560;2023-02-21T19:51:54;4.60;;;3.20;;
28796;SDS011;24974;54.444;18.560;2023-02-21T19:54:27;11.98;;;4.05;;
28796;SDS011;24974;54.444;18.560;2023-02-21T19:57:01;12.27;;;3.70;;
28796;SDS011;24974;54.444;18.560;2023-02-21T19:59:34;8.95;;;3.55;;
28796;SDS011;24974;54.444;18.560;2023-02-21T20:02:05;10.82;;;4.32;;
28796;SDS011;24974;54.444;18.560;2023-02-21T20:04:37;5.20;;;3.40;;
28796;SDS011;24974;54.444;18.560;2023-02-21T20:07:08;11.55;;;7.13;;
28796;SDS011;24974;54.444;18.560;2023-02-21T20:09:41;12.60;;;5.72;;
28796;SDS011;24974;54.444;18.560;2023-02-21T20:13:16;6.43;;;3.58;;
28796;SDS011;24974;54.444;18.560;2023-02-21T20:15:49;5.93;;;3.83;;
28796;SDS011;24974;54.444;18.560;2023-02-21T20:18:20;4.68;;;3.13;;
28796;SDS011;24974;54.444;18.560;2023-02-21T20:20:51;4.97;;;3.35;;
28796;SDS011;24974;54.444;18.560;2023-02-21T20:23:22;10.40;;;5.22;;
28796;SDS011;24974;54.444;18.560;2023-02-21T20:25:53;6.07;;;4.03;;
28796;SDS011;24974;54.444;18.560;2023-02-21T20:28:24;8.23;;;4.47;;
28796;SDS011;24974;54.444;18.560;2023-02-21T20:30:55;9.52;;;4.90;;
28796;SDS011;24974;54.444;18.560;2023-02-21T20:33:26;6.80;;;4.28;;
28796;SDS011;24974;54.444;18.560;2023-02-21T20:35:57;6.00;;;4.28;;
28796;SDS011;24974;54.444;18.560;2023-02-21T20:38:28;8.40;;;5.55;;
28796;SDS011;24974;54.444;18.560;2023-02-21T20:41:00;9.27;;;6.05;;
28796;SDS011;24974;54.444;18.560;2023-02-21T20:43:31;10.07;;;4.63;;
28796;SDS011;24974;54.444;18.560;2023-02-21T20:46:02;11.68;;;6.72;;
28796;SDS011;24974;54.444;18.560;2023-02-21T20:48:33;11.93;;;5.15;;
28796;SDS011;24974;54.444;18.560;2023-02-21T20:51:04;8.98;;;4.72;;
28796;SDS011;24974;54.444;18.560;2023-02-21T20:53:35;8.10;;;4.93;;
28796;SDS011;24974;54.444;18.560;2023-02-21T20:56:06;11.10;;;6.28;;
28796;SDS011;24974;54.444;18.560;2023-02-21T20:58:38;9.77;;;4.97;;
28796;SDS011;24974;54.444;18.560;2023-02-21T21:01:12;9.20;;;4.47;;
28796;SDS011;24974;54.444;18.560;2023-02-21T21:03:43;8.40;;;4.35;;
28796;SDS011;24974;54.444;18.560;2023-02-21T21:06:16;9.73;;;4.90;;
28796;SDS011;24974;54.444;18.560;2023-02-21T21:08:50;10.48;;;5.00;;
28796;SDS011;24974;54.444;18.560;2023-02-21T21:11:28;8.85;;;4.63;;
28796;SDS011;24974;54.444;18.560;2023-02-21T21:14:02;6.82;;;4.50;;
28796;SDS011;24974;54.444;18.560;2023-02-21T21:16:34;9.07;;;4.20;;
28796;SDS011;24974;54.444;18.560;2023-02-21T21:19:06;5.88;;;3.15;;
28796;SDS011;24974;54.444;18.560;2023-02-21T21:21:38;6.13;;;3.47;;
28796;SDS011;24974;54.444;18.560;2023-02-21T21:24:09;6.38;;;3.40;;
28796;SDS011;24974;54.444;18.560;2023-02-21T21:26:44;6.15;;;3.50;;
28796;SDS011;24974;54.444;18.560;2023-02-21T21:29:34;6.60;;;3.28;;
28796;SDS011;24974;54.444;18.560;2023-02-21T21:32:07;5.30;;;3.63;;
28796;SDS011;24974;54.444;18.560;2023-02-21T21:34:42;10.75;;;3.88;;
28796;SDS011;24974;54.444;18.560;2023-02-21T21:37:16;7.10;;;3.55;;
28796;SDS011;24974;54.444;18.560;2023-02-21T21:39:50;3.88;;;3.05;;
28796;SDS011;24974;54.444;18.560;2023-02-21T21:42:26;5.32;;;3.25;;
28796;SDS011;24974;54.444;18.560;2023-02-21T21:44:58;3.90;;;2.90;;
28796;SDS011;24974;54.444;18.560;2023-02-21T21:47:29;6.28;;;3.63;;
28796;SDS011;24974;54.444;18.560;2023-02-21T21:50:06;5.82;;;3.40;;
28796;SDS011;24974;54.444;18.560;2023-02-21T21:52:38;5.65;;;3.15;;
28796;SDS011;24974;54.444;18.560;2023-02-21T21:55:18;4.87;;;3.20;;
28796;SDS011;24974;54.444;18.560;2023-02-21T21:57:56;5.18;;;3.05;;
28796;SDS011;24974;54.444;18.560;2023-02-21T22:00:28;6.82;;;3.50;;
28796;SDS011;24974;54.444;18.560;2023-02-21T22:03:00;4.00;;;2.97;;
28796;SDS011;24974;54.444;18.560;2023-02-21T22:05:31;4.93;;;3.15;;
28796;SDS011;24974;54.444;18.560;2023-02-21T22:08:01;5.88;;;2.35;;
28796;SDS011;24974;54.444;18.560;2023-02-21T22:10:33;4.47;;;2.88;;
28796;SDS011;24974;54.444;18.560;2023-02-21T22:13:07;3.20;;;2.70;;
28796;SDS011;24974;54.444;18.560;2023-02-21T22:15:43;5.30;;;3.17;;
28796;SDS011;24974;54.444;18.560;2023-02-21T22:18:17;3.97;;;3.15;;
28796;SDS011;24974;54.444;18.560;2023-02-21T22:20:49;4.03;;;3.00;;
28796;SDS011;24974;54.444;18.560;2023-02-21T22:23:20;4.60;;;3.05;;
28796;SDS011;24974;54.444;18.560;2023-02-21T22:25:53;4.20;;;3.28;;
28796;SDS011;24974;54.444;18.560;2023-02-21T22:28:26;4.07;;;3.03;;
28796;SDS011;24974;54.444;18.560;2023-02-21T22:30:57;5.68;;;3.08;;
28796;SDS011;24974;54.444;18.560;2023-02-21T22:33:28;3.92;;;2.72;;
28796;SDS011;24974;54.444;18.560;2023-02-21T22:35:59;4.65;;;3.00;;
28796;SDS011;24974;54.444;18.560;2023-02-21T22:38:31;9.65;;;3.80;;
28796;SDS011;24974;54.444;18.560;2023-02-21T22:41:02;3.88;;;3.50;;
28796;SDS011;24974;54.444;18.560;2023-02-21T22:43:34;4.30;;;3.40;;
28796;SDS011;24974;54.444;18.560;2023-02-21T22:46:05;7.80;;;3.47;;
28796;SDS011;24974;54.444;18.560;2023-02-21T22:48:37;5.25;;;3.40;;
28796;SDS011;24974;54.444;18.560;2023-02-21T22:51:10;6.40;;;3.88;;
28796;SDS011;24974;54.444;18.560;2023-02-21T22:53:41;6.75;;;4.65;;
28796;SDS011;24974;54.444;18.560;2023-02-21T22:56:20;9.70;;;3.97;;
28796;SDS011;24974;54.444;18.560;2023-02-21T22:58:54;6.05;;;3.47;;
28796;SDS011;24974;54.444;18.560;2023-02-21T23:01:26;4.13;;;3.20;;
28796;SDS011;24974;54.444;18.560;2023-02-21T23:03:57;4.22;;;3.33;;
28796;SDS011;24974;54.444;18.560;2023-02-21T23:06:40;4.93;;;3.20;;
28796;SDS011;24974;54.444;18.560;2023-02-21T23:09:12;6.38;;;3.20;;
28796;SDS011;24974;54.444;18.560;2023-02-21T23:11:47;5.28;;;4.25;;
28796;SDS011;24974;54.444;18.560;2023-02-21T23:14:19;6.57;;;3.83;;
28796;SDS011;24974;54.444;18.560;2023-02-21T23:16:54;5.10;;;3.60;;